createdAt,value
2022-07-30T00:01:45.394Z,2.80
2022-07-30T00:06:48.918Z,2.60
2022-07-30T00:11:52.639Z,2.80
2022-07-30T00:16:56.361Z,2.60
2022-07-30T00:22:00.195Z,2.50
2022-07-30T00:27:04.249Z,2.70
2022-07-30T00:32:08.404Z,2.60
2022-07-30T00:37:12.390Z,2.70
2022-07-30T00:42:16.831Z,2.20
2022-07-30T00:47:39.705Z,2.50
2022-07-30T00:52:44.018Z,2.20
2022-07-30T00:57:47.555Z,2.30
2022-07-30T01:02:51.284Z,2.20
2022-07-30T01:07:54.905Z,2.60
2022-07-30T01:12:59.562Z,2.10
2022-07-30T01:18:13.046Z,2.30
2022-07-30T01:23:51.105Z,1.80
2022-07-30T01:28:59.478Z,2.40
2022-07-30T01:34:04.799Z,2.40
2022-07-30T01:39:20.757Z,2.40
2022-07-30T01:44:28.185Z,2.40
2022-07-30T01:54:45.279Z,2.30
2022-07-30T01:59:58.050Z,2.30
2022-07-30T02:05:03.174Z,2.50
2022-07-30T02:10:46.620Z,2.10
2022-07-30T02:16:25.383Z,2.40
2022-07-30T02:21:37.162Z,2.30
2022-07-30T02:26:43.421Z,2.30
2022-07-30T02:31:53.806Z,2.50
2022-07-30T02:36:59.654Z,2.20
2022-07-30T02:42:06.696Z,2.40
2022-07-30T02:47:12.869Z,2.30
2022-07-30T02:52:19.227Z,2.30
2022-07-30T02:57:25.309Z,2.20
2022-07-30T03:02:31.877Z,2.20
2022-07-30T03:07:37.785Z,1.90
2022-07-30T03:12:47.599Z,2.20
2022-07-30T03:17:55.627Z,2.10
2022-07-30T03:23:04.940Z,2.00
2022-07-30T03:28:12.264Z,1.80
2022-07-30T03:33:16.571Z,2.30
2022-07-30T03:38:23.267Z,2.50
2022-07-30T03:43:33.507Z,2.50
2022-07-30T03:48:39.235Z,2.00
2022-07-30T03:53:43.657Z,2.20
2022-07-30T03:59:17.053Z,2.50
2022-07-30T04:04:21.087Z,2.30
2022-07-30T04:09:25.323Z,2.10
2022-07-30T04:14:49.316Z,2.00
2022-07-30T04:20:02.311Z,2.10
2022-07-30T04:25:07.371Z,2.10
2022-07-30T04:30:11.868Z,2.30
2022-07-30T04:35:49.645Z,2.00
2022-07-30T04:40:52.992Z,2.10
2022-07-30T04:46:01.531Z,1.90
2022-07-30T04:51:33.061Z,1.90
2022-07-30T04:56:38.524Z,1.80
2022-07-30T05:01:43.818Z,2.00
2022-07-30T05:06:48.023Z,2.00
2022-07-30T05:12:00.661Z,2.00
2022-07-30T05:17:07.244Z,2.10
2022-07-30T05:22:11.375Z,2.20
2022-07-30T05:27:22.061Z,2.10
2022-07-30T05:32:33.798Z,2.20
2022-07-30T05:37:43.434Z,1.80
2022-07-30T05:42:47.053Z,1.60
2022-07-30T05:47:50.753Z,2.00
2022-07-30T05:52:56.344Z,1.70
2022-07-30T05:58:19.823Z,1.80
2022-07-30T06:03:23.546Z,2.20
2022-07-30T06:08:45.797Z,1.70
2022-07-30T06:13:59.312Z,1.90
2022-07-30T06:19:19.679Z,2.00
2022-07-30T06:24:29.173Z,1.90
2022-07-30T06:30:08.244Z,1.80
2022-07-30T06:35:12.064Z,1.90
2022-07-30T06:40:15.688Z,1.90
2022-07-30T06:46:04.635Z,1.90
2022-07-30T06:51:25.990Z,1.70
2022-07-30T06:56:31.937Z,1.70
2022-07-30T07:01:41.945Z,2.10
2022-07-30T07:06:49.017Z,2.00
2022-07-30T07:12:15.925Z,2.10
2022-07-30T07:17:24.473Z,1.80
2022-07-30T07:22:54.228Z,2.00
2022-07-30T07:28:11.546Z,1.70
2022-07-30T07:33:19.484Z,2.10
2022-07-30T07:38:23.824Z,2.00
2022-07-30T07:43:27.858Z,2.10
2022-07-30T07:48:36.292Z,1.80
2022-07-30T07:54:11.889Z,1.90
2022-07-30T07:59:19.249Z,1.70
2022-07-30T08:04:22.771Z,1.70
2022-07-30T08:09:46.656Z,1.90
2022-07-30T08:15:24.011Z,1.80
2022-07-30T08:20:52.916Z,1.70
2022-07-30T08:25:59.854Z,1.80
2022-07-30T08:31:04.901Z,1.70
2022-07-30T08:36:10.118Z,1.80
2022-07-30T08:41:21.656Z,1.60
2022-07-30T08:46:28.152Z,1.80
2022-07-30T08:51:37.199Z,1.90
2022-07-30T08:57:00.070Z,1.60
2022-07-30T09:02:10.374Z,1.80
2022-07-30T09:07:24.807Z,1.80
2022-07-30T09:12:39.177Z,1.80
2022-07-30T09:18:04.289Z,1.90
2022-07-30T09:23:10.370Z,1.80
2022-07-30T09:28:34.360Z,1.80
2022-07-30T09:33:50.260Z,1.90
2022-07-30T09:39:39.214Z,2.00
2022-07-30T09:45:10.676Z,1.80
2022-07-30T09:50:30.159Z,1.70
2022-07-30T09:55:41.351Z,1.90
2022-07-30T10:00:47.421Z,2.10
2022-07-30T10:06:03.769Z,1.70
2022-07-30T10:11:22.699Z,2.10
2022-07-30T10:16:35.654Z,1.70
2022-07-30T10:21:40.303Z,1.90
2022-07-30T10:26:54.680Z,2.00
2022-07-30T10:32:16.607Z,1.80
2022-07-30T10:37:22.777Z,1.80
2022-07-30T10:42:44.422Z,2.30
2022-07-30T10:47:49.946Z,1.70
2022-07-30T10:52:55.978Z,1.60
2022-07-30T10:58:05.921Z,1.80
2022-07-30T11:03:38.786Z,1.80
2022-07-30T11:08:48.233Z,2.00
2022-07-30T11:14:01.321Z,1.90
2022-07-30T11:19:55.639Z,1.70
2022-07-30T11:24:46.325Z,2.00
2022-07-30T11:29:50.440Z,1.90
2022-07-30T11:35:23.280Z,1.90
2022-07-30T11:40:29.422Z,1.50
2022-07-30T11:45:33.669Z,1.90
2022-07-30T11:50:37.701Z,1.80
2022-07-30T11:56:02.917Z,1.50
2022-07-30T12:01:12.474Z,1.70
2022-07-30T12:06:24.818Z,1.90
2022-07-30T12:11:35.889Z,1.90
2022-07-30T12:16:41.560Z,1.70
2022-07-30T12:21:48.332Z,1.60
2022-07-30T12:27:09.171Z,1.90
2022-07-30T12:32:13.100Z,1.90
2022-07-30T12:37:16.726Z,1.80
2022-07-30T12:42:21.025Z,1.50
2022-07-30T12:47:26.554Z,1.70
2022-07-30T12:52:35.441Z,2.00
2022-07-30T12:58:02.950Z,1.70
2022-07-30T13:03:39.533Z,1.70
2022-07-30T13:08:57.365Z,1.70
2022-07-30T13:14:00.884Z,1.40
2022-07-30T13:19:05.385Z,1.80
2022-07-30T13:24:09.867Z,1.70
2022-07-30T13:29:21.599Z,1.70
2022-07-30T13:34:25.812Z,2.10
2022-07-30T13:39:29.440Z,1.80
2022-07-30T13:44:32.958Z,1.60
2022-07-30T13:49:44.360Z,1.80
2022-07-30T13:55:15.925Z,1.70
2022-07-30T14:00:24.845Z,1.90
2022-07-30T14:05:28.910Z,1.90
2022-07-30T14:10:33.140Z,2.10
2022-07-30T14:15:39.046Z,1.80
2022-07-30T14:20:48.911Z,1.70
2022-07-30T14:25:57.715Z,2.20
2022-07-30T14:31:08.895Z,1.80
2022-07-30T14:36:12.641Z,1.80
2022-07-30T14:41:16.118Z,1.90
2022-07-30T14:46:20.292Z,1.90
2022-07-30T14:51:26.349Z,1.90
2022-07-30T14:56:35.109Z,2.00
2022-07-30T15:01:39.488Z,2.10
2022-07-30T15:06:43.664Z,2.00
2022-07-30T15:12:24.140Z,1.60
2022-07-30T15:17:11.299Z,1.70
2022-07-30T15:22:15.329Z,1.90
2022-07-30T15:27:19.302Z,1.80
2022-07-30T15:32:23.001Z,2.10
2022-07-30T15:37:33.771Z,1.60
2022-07-30T15:42:37.597Z,1.80
2022-07-30T15:47:41.184Z,1.90
2022-07-30T15:52:45.459Z,2.10
2022-07-30T15:57:48.980Z,1.90
2022-07-30T16:02:52.601Z,1.80
